Time;durP1;ratioP1;P1;durP2;ratioP2;P2;SDS_P1;SDS_P2;PMS_P1;PMS_P2;Temp;Humidity;BMP_temperature;BMP_pressure;BME280_temperature;BME280_humidity;BME280_pressure;Samples;Min_cycle;Max_cycle;Signal;HPM_P1;HPM_P2
2023/07/21 00:00:24;;;;;;;;;;;13.50;99.90;;;;;;7325751;19;9579;-84
2023/07/21 00:02:53;;;;;;;;;;;13.50;99.90;;;;;;7326673;19;9260;-84
2023/07/21 00:05:25;;;;;;;;;;;13.50;99.90;;;;;;7326099;19;10287;-85
2023/07/21 00:07:54;;;;;;;;;;;13.50;99.90;;;;;;7326505;19;9474;-85
2023/07/21 00:10:24;;;;;;;;;;;13.50;99.90;;;;;;7326810;19;9477;-84
2023/07/21 00:12:53;;;;;;;;;;;13.40;99.90;;;;;;7327699;19;9321;-84
2023/07/21 00:15:22;;;;;;;;;;;13.40;99.90;;;;;;7326467;19;9620;-84
2023/07/21 00:17:51;;;;;;;;;;;13.30;99.90;;;;;;7327466;19;9235;-85
2023/07/21 00:20:24;;;;;;;;;;;13.20;99.90;;;;;;7327811;19;9218;-85
2023/07/21 00:22:56;;;;;;;;;;;13.20;99.90;;;;;;7325327;19;9186;-85
2023/07/21 00:25:25;;;;;;;;;;;13.20;99.90;;;;;;7326778;19;9266;-85
2023/07/21 00:27:54;;;;;;;;;;;13.20;99.90;;;;;;7326595;19;9165;-85
2023/07/21 00:30:23;;;;;;;;;;;13.20;99.90;;;;;;7325696;19;9506;-84
2023/07/21 00:32:52;;;;;;;;;;;13.20;99.90;;;;;;7326475;19;10324;-84
2023/07/21 00:35:22;;;;;;;;;;;13.20;99.90;;;;;;7325260;19;9453;-84
2023/07/21 00:37:51;;;;;;;;;;;13.20;99.90;;;;;;7325516;19;9636;-84
2023/07/21 00:40:23;;;;;;;;;;;13.10;99.90;;;;;;7322273;19;9406;-83
2023/07/21 00:42:53;;;;;;;;;;;13.10;99.90;;;;;;7324424;19;9222;-84
2023/07/21 00:45:22;;;;;;;;;;;13.10;99.90;;;;;;7323763;19;9220;-84
2023/07/21 00:47:51;;;;;;;;;;;13.20;99.90;;;;;;7324485;19;9288;-84
2023/07/21 00:50:22;;;;;;;;;;;13.20;99.90;;;;;;7325020;19;9118;-84
2023/07/21 00:52:52;;;;;;;;;;;13.20;99.90;;;;;;7324161;19;9197;-84
2023/07/21 00:55:25;;;;;;;;;;;13.20;99.90;;;;;;7325213;19;9241;-84
2023/07/21 00:57:54;;;;;;;;;;;13.20;99.90;;;;;;7321282;19;10762;-85
2023/07/21 01:00:23;;;;;;;;;;;13.20;99.90;;;;;;7320923;19;9336;-86
2023/07/21 01:02:52;;;;;;;;;;;13.20;99.90;;;;;;7321480;19;9397;-85
2023/07/21 01:05:21;;;;;;;;;;;13.20;99.90;;;;;;7322338;19;11087;-85
2023/07/21 01:07:50;;;;;;;;;;;13.20;99.90;;;;;;7323390;19;9371;-85
2023/07/21 01:10:23;;;;;;;;;;;13.10;99.90;;;;;;7323604;19;9252;-86
2023/07/21 01:12:52;;;;;;;;;;;13.10;99.90;;;;;;7324358;19;9232;-86
2023/07/21 01:15:21;;;;;;;;;;;13.10;99.90;;;;;;7323770;19;9297;-86
2023/07/21 01:17:54;;;;;;;;;;;13.10;99.90;;;;;;7322860;19;9459;-86
2023/07/21 01:20:27;;;;;;;;;;;13.00;99.90;;;;;;7324479;19;9215;-88
2023/07/21 01:23:03;;;;;;;;;;;13.00;99.90;;;;;;7323710;19;9428;-87
2023/07/21 01:25:38;;;;;;;;;;;13.00;99.90;;;;;;7323887;19;9176;-88
2023/07/21 01:28:10;;;;;;;;;;;12.90;99.90;;;;;;7324095;19;9181;-86
2023/07/21 01:30:45;;;;;;;;;;;12.80;99.90;;;;;;7323916;19;9208;-86
2023/07/21 01:33:18;;;;;;;;;;;12.80;99.90;;;;;;7324837;19;9405;-87
2023/07/21 01:35:49;;;;;;;;;;;12.80;99.90;;;;;;7323538;19;9278;-86
2023/07/21 01:38:20;;;;;;;;;;;12.80;99.90;;;;;;7323245;19;9191;-87
2023/07/21 01:40:54;;;;;;;;;;;12.80;99.90;;;;;;7322935;19;9263;-86
2023/07/21 01:43:24;;;;;;;;;;;12.80;99.90;;;;;;7322963;19;9406;-87
2023/07/21 01:45:53;;;;;;;;;;;12.80;99.90;;;;;;7319828;19;9306;-88
2023/07/21 01:48:24;;;;;;;;;;;12.80;99.90;;;;;;7324615;19;9119;-85
2023/07/21 01:50:55;;;;;;;;;;;12.70;99.90;;;;;;7324096;19;9242;-85
2023/07/21 01:53:30;;;;;;;;;;;12.80;99.90;;;;;;7322157;19;9234;-86
2023/07/21 01:56:07;;;;;;;;;;;12.80;99.90;;;;;;7322570;19;9190;-87
2023/07/21 01:58:41;;;;;;;;;;;12.70;99.90;;;;;;7322678;19;9425;-86
2023/07/21 02:01:14;;;;;;;;;;;12.70;99.90;;;;;;7318691;19;10297;-87
2023/07/21 02:03:45;;;;;;;;;;;12.60;99.90;;;;;;7320249;19;9379;-87
2023/07/21 02:06:17;;;;;;;;;;;12.60;99.90;;;;;;7322852;19;10465;-87
2023/07/21 02:08:47;;;;;;;;;;;12.60;99.90;;;;;;7320665;19;9217;-87
2023/07/21 02:11:20;;;;;;;;;;;12.50;99.90;;;;;;7322107;19;9398;-88
2023/07/21 02:13:49;;;;;;;;;;;12.50;99.90;;;;;;7317682;19;10379;-88
2023/07/21 02:16:18;;;;;;;;;;;12.50;99.90;;;;;;7320374;19;9692;-88
2023/07/21 02:18:47;;;;;;;;;;;12.50;99.90;;;;;;7321723;19;9339;-88
2023/07/21 02:21:16;;;;;;;;;;;12.40;99.90;;;;;;7321242;19;9154;-88
2023/07/21 02:23:45;;;;;;;;;;;12.50;99.90;;;;;;7318856;19;10561;-88
2023/07/21 02:26:14;;;;;;;;;;;12.50;99.90;;;;;;7322531;19;9245;-88
2023/07/21 02:28:45;;;;;;;;;;;12.50;99.90;;;;;;7320522;19;9121;-88
2023/07/21 02:31:14;;;;;;;;;;;12.60;99.90;;;;;;7321278;19;9200;-88
2023/07/21 02:33:43;;;;;;;;;;;12.60;99.90;;;;;;7318636;19;9546;-88
2023/07/21 02:36:13;;;;;;;;;;;12.60;99.90;;;;;;7319999;19;9213;-87
2023/07/21 02:38:42;;;;;;;;;;;12.60;99.90;;;;;;7320152;19;9408;-87
2023/07/21 02:41:11;;;;;;;;;;;12.60;99.90;;;;;;7321289;19;9166;-88
2023/07/21 02:43:41;;;;;;;;;;;12.70;99.90;;;;;;7319749;19;10489;-88
2023/07/21 02:46:14;;;;;;;;;;;12.80;99.90;;;;;;7314949;19;8996;-87
2023/07/21 02:48:43;;;;;;;;;;;12.80;99.90;;;;;;7323659;19;9467;-88
2023/07/21 02:51:12;;;;;;;;;;;12.70;99.90;;;;;;7321394;19;9209;-88
2023/07/21 02:53:41;;;;;;;;;;;12.70;99.90;;;;;;7321821;19;10295;-87
2023/07/21 02:56:11;;;;;;;;;;;12.60;99.90;;;;;;7322341;19;9194;-88
2023/07/21 02:58:40;;;;;;;;;;;12.60;99.90;;;;;;7321199;19;9565;-86
2023/07/21 03:01:12;;;;;;;;;;;12.60;99.90;;;;;;7328349;19;9409;-86
2023/07/21 03:03:41;;;;;;;;;;;12.60;99.90;;;;;;7322491;19;9480;-86
2023/07/21 03:06:11;;;;;;;;;;;12.60;99.90;;;;;;7321630;19;10161;-86
2023/07/21 03:08:40;;;;;;;;;;;12.60;99.90;;;;;;7321425;19;9236;-85
2023/07/21 03:11:11;;;;;;;;;;;12.60;99.90;;;;;;7321795;19;9249;-84
2023/07/21 03:13:40;;;;;;;;;;;12.60;99.90;;;;;;7320785;19;9277;-85
2023/07/21 03:16:13;;;;;;;;;;;12.60;99.90;;;;;;7321805;19;9459;-86
2023/07/21 03:18:42;;;;;;;;;;;12.60;99.90;;;;;;7320675;19;9250;-85
2023/07/21 03:21:12;;;;;;;;;;;12.60;99.90;;;;;;7318741;19;9165;-85
2023/07/21 03:23:40;;;;;;;;;;;12.60;99.90;;;;;;7321157;19;9257;-85
2023/07/21 03:26:09;;;;;;;;;;;12.60;99.90;;;;;;7324037;19;9293;-85
2023/07/21 03:28:38;;;;;;;;;;;12.60;99.90;;;;;;7328438;19;9398;-85
2023/07/21 03:31:09;;;;;;;;;;;12.60;99.90;;;;;;7327186;19;9567;-85
2023/07/21 03:33:40;;;;;;;;;;;12.60;99.90;;;;;;7326987;19;9314;-85
2023/07/21 03:36:09;;;;;;;;;;;12.60;99.90;;;;;;7328189;19;9243;-85
2023/07/21 03:38:39;;;;;;;;;;;12.60;99.90;;;;;;7327331;19;9165;-85
2023/07/21 03:41:10;;;;;;;;;;;12.50;99.90;;;;;;7327838;19;10483;-85
2023/07/21 03:43:39;;;;;;;;;;;12.40;99.90;;;;;;7327384;19;9389;-88
2023/07/21 03:46:10;;;;;;;;;;;12.40;99.90;;;;;;7325645;19;9233;-88
2023/07/21 03:48:42;;;;;;;;;;;12.30;99.90;;;;;;7325692;19;9335;-88
2023/07/21 03:51:13;;;;;;;;;;;12.30;99.90;;;;;;7327251;19;9429;-87
2023/07/21 03:53:42;;;;;;;;;;;12.40;99.90;;;;;;7326824;19;9449;-87
2023/07/21 03:56:11;;;;;;;;;;;12.40;99.90;;;;;;7327113;19;9165;-88
2023/07/21 03:58:40;;;;;;;;;;;12.40;99.90;;;;;;7327153;19;9247;-89
2023/07/21 04:01:09;;;;;;;;;;;12.40;99.90;;;;;;7326892;19;9327;-88
2023/07/21 04:03:41;;;;;;;;;;;12.50;99.90;;;;;;7324853;19;10587;-88
2023/07/21 04:06:10;;;;;;;;;;;12.60;99.90;;;;;;7325834;19;9252;-88
2023/07/21 04:08:40;;;;;;;;;;;12.60;99.90;;;;;;7326510;19;9200;-88
2023/07/21 04:11:09;;;;;;;;;;;12.60;99.90;;;;;;7325383;19;9192;-85
2023/07/21 04:13:38;;;;;;;;;;;12.70;99.90;;;;;;7325096;19;9715;-86
2023/07/21 04:16:07;;;;;;;;;;;12.70;99.90;;;;;;7325790;19;9461;-85
2023/07/21 04:18:37;;;;;;;;;;;12.70;99.90;;;;;;7325793;19;9161;-85
2023/07/21 04:21:09;;;;;;;;;;;12.70;99.90;;;;;;7325092;19;9200;-85
2023/07/21 04:23:38;;;;;;;;;;;12.70;99.90;;;;;;7324374;19;9490;-85
2023/07/21 04:26:08;;;;;;;;;;;12.70;99.90;;;;;;7326986;19;11645;-85
2023/07/21 04:28:37;;;;;;;;;;;12.80;99.90;;;;;;7324845;19;9110;-85
2023/07/21 04:31:06;;;;;;;;;;;12.80;99.90;;;;;;7325559;19;10299;-85
2023/07/21 04:33:35;;;;;;;;;;;12.80;99.90;;;;;;7324311;19;9295;-85
2023/07/21 04:36:04;;;;;;;;;;;12.80;99.90;;;;;;7324667;19;9791;-85
2023/07/21 04:38:36;;;;;;;;;;;12.90;99.90;;;;;;7325218;19;9252;-85
2023/07/21 04:41:05;;;;;;;;;;;13.00;99.90;;;;;;7325322;19;9296;-85
2023/07/21 04:43:34;;;;;;;;;;;13.00;99.90;;;;;;7323702;19;9280;-85
2023/07/21 04:46:02;;;;;;;;;;;13.10;99.90;;;;;;7322162;19;9511;-85
2023/07/21 04:48:32;;;;;;;;;;;13.10;99.90;;;;;;7325117;19;10836;-84
2023/07/21 04:51:04;;;;;;;;;;;13.20;99.90;;;;;;7324950;19;10776;-87
2023/07/21 04:53:36;;;;;;;;;;;13.30;99.90;;;;;;7325816;19;9257;-90
2023/07/21 04:56:05;;;;;;;;;;;13.40;99.90;;;;;;7324826;19;9221;-86
2023/07/21 04:58:34;;;;;;;;;;;13.40;99.90;;;;;;7323206;19;9240;-85
2023/07/21 05:01:03;;;;;;;;;;;13.40;99.90;;;;;;7323993;19;9413;-85
2023/07/21 05:03:32;;;;;;;;;;;13.50;99.90;;;;;;7322781;19;9269;-85
2023/07/21 05:06:01;;;;;;;;;;;13.50;99.90;;;;;;7323764;19;9465;-86
2023/07/21 05:08:30;;;;;;;;;;;13.50;99.90;;;;;;7325331;19;9307;-85
2023/07/21 05:11:02;;;;;;;;;;;13.60;99.90;;;;;;7325841;19;8944;-85
2023/07/21 05:13:31;;;;;;;;;;;13.50;99.90;;;;;;7321044;19;9177;-85
2023/07/21 05:16:00;;;;;;;;;;;13.60;99.90;;;;;;7323281;19;8997;-82
2023/07/21 05:18:29;;;;;;;;;;;13.60;99.90;;;;;;7322484;19;9225;-90
2023/07/21 05:20:59;;;;;;;;;;;13.70;99.90;;;;;;7323478;19;9185;-83
2023/07/21 05:23:29;;;;;;;;;;;13.70;99.90;;;;;;7318451;19;9197;-84
2023/07/21 05:26:04;;;;;;;;;;;13.80;99.90;;;;;;7318263;19;9217;-86
2023/07/21 05:28:35;;;;;;;;;;;13.80;99.90;;;;;;7319969;19;9270;-85
2023/07/21 05:31:04;;;;;;;;;;;13.90;99.90;;;;;;7320334;19;9516;-86
2023/07/21 05:33:33;;;;;;;;;;;13.90;99.90;;;;;;7319014;19;9248;-80
2023/07/21 05:36:09;;;;;;;;;;;14.00;99.90;;;;;;7317039;19;10677;-84
2023/07/21 05:38:39;;;;;;;;;;;14.00;99.90;;;;;;7320517;19;9439;-84
2023/07/21 05:41:11;;;;;;;;;;;14.00;99.90;;;;;;7323476;19;8944;-84
2023/07/21 05:43:40;;;;;;;;;;;14.10;99.90;;;;;;7324162;19;9224;-84
2023/07/21 05:46:12;;;;;;;;;;;14.10;99.90;;;;;;7320842;19;9200;-85
2023/07/21 05:48:42;;;;;;;;;;;14.20;99.90;;;;;;7322842;19;9186;-83
2023/07/21 05:51:17;;;;;;;;;;;14.30;99.90;;;;;;7322808;19;9481;-84
2023/07/21 05:53:46;;;;;;;;;;;14.50;99.90;;;;;;7324680;19;8945;-84
2023/07/21 05:56:17;;;;;;;;;;;14.80;99.90;;;;;;7324908;19;9229;-84
2023/07/21 05:58:46;;;;;;;;;;;15.10;99.90;;;;;;7323133;19;9194;-83
2023/07/21 06:01:15;;;;;;;;;;;15.00;99.90;;;;;;7323449;19;9285;-83
2023/07/21 06:03:45;;;;;;;;;;;15.00;99.90;;;;;;7320905;19;9571;-84
2023/07/21 06:06:14;;;;;;;;;;;14.90;99.90;;;;;;7322474;19;9694;-84
2023/07/21 06:08:43;;;;;;;;;;;14.80;99.90;;;;;;7320675;19;9298;-84
2023/07/21 06:11:12;;;;;;;;;;;14.80;99.90;;;;;;7321567;19;9120;-84
2023/07/21 06:13:44;;;;;;;;;;;14.80;99.90;;;;;;7321718;19;9454;-84
2023/07/21 06:16:13;;;;;;;;;;;14.70;99.90;;;;;;7315293;19;9512;-85
2023/07/21 06:18:42;;;;;;;;;;;14.70;99.90;;;;;;7322323;19;9309;-84
2023/07/21 06:21:13;;;;;;;;;;;14.80;99.90;;;;;;7319847;19;9192;-85
2023/07/21 06:23:42;;;;;;;;;;;14.80;99.90;;;;;;7320870;19;9194;-83
2023/07/21 06:26:11;;;;;;;;;;;14.80;99.90;;;;;;7320808;19;9167;-84
2023/07/21 06:28:40;;;;;;;;;;;14.90;99.90;;;;;;7319543;19;9462;-83
2023/07/21 06:31:13;;;;;;;;;;;14.90;99.90;;;;;;7320190;19;9182;-84
2023/07/21 06:33:42;;;;;;;;;;;15.10;99.90;;;;;;7323197;19;9251;-83
2023/07/21 06:36:11;;;;;;;;;;;15.30;99.90;;;;;;7321970;19;9185;-84
2023/07/21 06:38:40;;;;;;;;;;;15.40;99.90;;;;;;7317409;19;11153;-85
2023/07/21 06:41:09;;;;;;;;;;;15.50;99.90;;;;;;7319255;19;9279;-84
2023/07/21 06:43:38;;;;;;;;;;;15.50;99.90;;;;;;7320965;19;9427;-85
2023/07/21 06:46:07;;;;;;;;;;;15.50;99.90;;;;;;7319996;19;9309;-85
2023/07/21 06:48:39;;;;;;;;;;;15.50;99.90;;;;;;7321710;19;9768;-85
2023/07/21 06:51:08;;;;;;;;;;;15.60;99.90;;;;;;7320099;19;9666;-84
2023/07/21 06:53:37;;;;;;;;;;;15.60;99.90;;;;;;7321719;19;9178;-85
2023/07/21 06:56:07;;;;;;;;;;;15.70;99.90;;;;;;7321371;19;9242;-83
2023/07/21 06:58:36;;;;;;;;;;;15.80;99.90;;;;;;7322167;19;9240;-84
2023/07/21 07:01:07;;;;;;;;;;;15.90;99.90;;;;;;7323677;19;9517;-84
2023/07/21 07:03:39;;;;;;;;;;;16.00;99.90;;;;;;7328002;19;9525;-86
2023/07/21 07:06:08;;;;;;;;;;;16.20;99.90;;;;;;7327073;19;9248;-85
2023/07/21 07:08:37;;;;;;;;;;;16.20;99.90;;;;;;7328122;19;9479;-84
2023/07/21 07:11:06;;;;;;;;;;;16.30;99.90;;;;;;7326847;19;9247;-85
2023/07/21 07:13:35;;;;;;;;;;;16.50;99.90;;;;;;7326952;19;9252;-84
2023/07/21 07:16:04;;;;;;;;;;;16.90;99.90;;;;;;7327303;19;9505;-84
2023/07/21 07:18:33;;;;;;;;;;;17.40;99.90;;;;;;7326860;19;9248;-84
2023/07/21 07:21:05;;;;;;;;;;;18.00;99.90;;;;;;7326725;19;9263;-83
2023/07/21 07:23:34;;;;;;;;;;;18.40;99.90;;;;;;7326448;19;10462;-84
2023/07/21 07:26:05;;;;;;;;;;;19.00;99.90;;;;;;7328356;19;9306;-83
2023/07/21 07:28:35;;;;;;;;;;;19.50;99.90;;;;;;7326995;19;9197;-84
2023/07/21 07:31:06;;;;;;;;;;;20.00;99.90;;;;;;7328683;19;9292;-84
2023/07/21 07:33:36;;;;;;;;;;;20.50;99.40;;;;;;7327366;19;9462;-83
2023/07/21 07:36:07;;;;;;;;;;;20.80;97.40;;;;;;7326914;19;9679;-83
2023/07/21 07:38:56;;;;;;;;;;;21.00;94.50;;;;;;7325207;19;9285;-84
2023/07/21 07:41:25;;;;;;;;;;;21.30;94.70;;;;;;7326473;19;9185;-84
2023/07/21 07:43:54;;;;;;;;;;;21.40;92.10;;;;;;7325817;19;9296;-84
2023/07/21 07:46:23;;;;;;;;;;;21.60;86.10;;;;;;7320579;19;9615;-84
2023/07/21 07:48:52;;;;;;;;;;;21.80;90.70;;;;;;7325773;19;9394;-84
2023/07/21 07:51:25;;;;;;;;;;;22.00;83.90;;;;;;7323393;19;9197;-84
2023/07/21 07:53:55;;;;;;;;;;;21.80;80.70;;;;;;7326654;19;9411;-83
2023/07/21 07:56:24;;;;;;;;;;;22.10;87.70;;;;;;7326340;19;9253;-83
2023/07/21 07:58:53;;;;;;;;;;;22.30;87.30;;;;;;7322019;19;9300;-84
2023/07/21 08:01:22;;;;;;;;;;;22.50;84.20;;;;;;7325674;19;9297;-84
2023/07/21 08:03:53;;;;;;;;;;;22.60;76.80;;;;;;7323911;19;10570;-82
2023/07/21 08:06:26;;;;;;;;;;;22.60;76.40;;;;;;7319117;19;10539;-84
2023/07/21 08:08:55;;;;;;;;;;;22.50;78.20;;;;;;7321646;19;9173;-81
2023/07/21 08:11:24;;;;;;;;;;;22.50;72.70;;;;;;7320053;19;9249;-82
2023/07/21 08:13:53;;;;;;;;;;;22.40;72.60;;;;;;7325544;19;9285;-82
2023/07/21 08:16:22;;;;;;;;;;;22.40;72.80;;;;;;7323834;19;10154;-83
2023/07/21 08:18:51;;;;;;;;;;;22.50;77.60;;;;;;7326318;19;10343;-83
2023/07/21 08:21:27;;;;;;;;;;;22.60;77.20;;;;;;7326114;19;9221;-83
2023/07/21 08:23:56;;;;;;;;;;;22.80;77.90;;;;;;7322595;19;8961;-83
2023/07/21 08:26:26;;;;;;;;;;;23.10;77.40;;;;;;7325286;19;9346;-83
2023/07/21 08:28:55;;;;;;;;;;;23.30;76.90;;;;;;7326478;19;9780;-83
2023/07/21 08:31:24;;;;;;;;;;;23.20;74.70;;;;;;7326646;19;9194;-83
2023/07/21 08:33:55;;;;;;;;;;;23.40;76.50;;;;;;7324429;19;9430;-83
2023/07/21 08:36:27;;;;;;;;;;;23.30;71.90;;;;;;7326472;19;9244;-83
2023/07/21 08:38:56;;;;;;;;;;;23.00;68.80;;;;;;7324253;19;9286;-83
2023/07/21 08:41:27;;;;;;;;;;;23.10;72.60;;;;;;7326315;19;9253;-82
2023/07/21 08:44:00;;;;;;;;;;;23.30;74.70;;;;;;7323076;19;9234;-83
2023/07/21 08:46:29;;;;;;;;;;;23.40;70.60;;;;;;7317136;19;9486;-82
2023/07/21 08:48:58;;;;;;;;;;;22.90;69.30;;;;;;7324318;19;9267;-83
2023/07/21 08:51:31;;;;;;;;;;;22.60;68.90;;;;;;7319728;19;10291;-82
2023/07/21 08:54:00;;;;;;;;;;;22.30;71.80;;;;;;7319647;19;9458;-82
2023/07/21 08:56:29;;;;;;;;;;;22.20;73.60;;;;;;7324860;19;9241;-81
2023/07/21 08:58:58;;;;;;;;;;;22.10;72.50;;;;;;7322022;19;9162;-81
2023/07/21 09:01:27;;;;;;;;;;;22.00;73.10;;;;;;7324902;19;9189;-82
2023/07/21 09:03:56;;;;;;;;;;;21.90;72.80;;;;;;7319607;19;10947;-81
2023/07/21 09:06:25;;;;;;;;;;;21.80;73.40;;;;;;7324799;19;9500;-81
2023/07/21 09:08:57;;;;;;;;;;;21.80;75.20;;;;;;7322631;19;9522;-81
2023/07/21 09:11:28;;;;;;;;;;;22.00;76.20;;;;;;7322549;19;9164;-81
2023/07/21 09:14:00;;;;;;;;;;;22.10;72.20;;;;;;7322345;19;9410;-79
2023/07/21 09:16:29;;;;;;;;;;;22.20;74.60;;;;;;7324211;19;10212;-77
2023/07/21 09:19:00;;;;;;;;;;;22.20;73.50;;;;;;7323172;19;9173;-77
2023/07/21 09:21:30;;;;;;;;;;;22.10;73.10;;;;;;7320279;19;9406;-78
2023/07/21 09:24:08;;;;;;;;;;;22.00;75.20;;;;;;7317624;19;9475;-76
2023/07/21 09:26:37;;;;;;;;;;;22.10;75.80;;;;;;7322035;19;9327;-78
2023/07/21 09:29:19;;;;;;;;;;;22.20;74.70;;;;;;7315800;19;9265;-77
2023/07/21 09:31:50;;;;;;;;;;;22.30;74.80;;;;;;7314691;19;9224;-77
2023/07/21 09:34:18;;;;;;;;;;;22.50;73.70;;;;;;7318170;19;9232;-77
2023/07/21 09:36:48;;;;;;;;;;;22.30;70.00;;;;;;7320931;19;9153;-78
2023/07/21 09:39:20;;;;;;;;;;;22.20;71.50;;;;;;7322876;19;9407;-80
2023/07/21 09:41:54;;;;;;;;;;;22.30;72.20;;;;;;7322789;19;9422;-79
2023/07/21 09:44:24;;;;;;;;;;;22.40;71.90;;;;;;7317976;19;9318;-79
2023/07/21 09:46:57;;;;;;;;;;;22.50;71.40;;;;;;7322328;19;9159;-79
2023/07/21 09:49:26;;;;;;;;;;;22.60;72.30;;;;;;7322608;19;9570;-80
2023/07/21 09:51:59;;;;;;;;;;;22.60;72.10;;;;;;7318176;19;9410;-80
2023/07/21 09:54:33;;;;;;;;;;;22.40;67.10;;;;;;7320346;19;8944;-80
2023/07/21 09:57:05;;;;;;;;;;;22.40;71.00;;;;;;7322626;19;10365;-78
2023/07/21 09:59:39;;;;;;;;;;;22.40;66.40;;;;;;7321693;19;9507;-79
2023/07/21 10:02:11;;;;;;;;;;;22.10;66.40;;;;;;7319962;19;9407;-79
2023/07/21 10:04:40;;;;;;;;;;;22.10;71.00;;;;;;7321790;19;10199;-80
2023/07/21 10:07:12;;;;;;;;;;;22.30;71.10;;;;;;7319431;19;9240;-79
2023/07/21 10:09:47;;;;;;;;;;;22.50;68.60;;;;;;7321509;19;9402;-82
2023/07/21 10:12:18;;;;;;;;;;;22.60;68.70;;;;;;7318453;19;9202;-79
2023/07/21 10:14:48;;;;;;;;;;;22.60;67.70;;;;;;7322689;19;9190;-79
2023/07/21 10:17:27;;;;;;;;;;;22.50;66.70;;;;;;7315254;19;10414;-77
2023/07/21 10:20:11;;;;;;;;;;;22.40;67.70;;;;;;7315829;19;9310;-80
2023/07/21 10:22:40;;;;;;;;;;;22.30;67.60;;;;;;7321827;19;9458;-80
2023/07/21 10:25:13;;;;;;;;;;;22.30;68.30;;;;;;7320687;19;9363;-80
2023/07/21 10:27:42;;;;;;;;;;;22.20;68.40;;;;;;7320472;19;10271;-79
2023/07/21 10:30:24;;;;;;;;;;;22.20;69.40;;;;;;7320482;19;9228;-80
2023/07/21 10:32:54;;;;;;;;;;;22.20;67.80;;;;;;7321950;19;9574;-79
2023/07/21 10:35:33;;;;;;;;;;;22.50;68.40;;;;;;7316840;19;9486;-80
2023/07/21 10:38:22;;;;;;;;;;;22.80;67.20;;;;;;7316311;19;9286;-81
2023/07/21 10:40:53;;;;;;;;;;;23.10;68.20;;;;;;7319966;19;9154;-79
2023/07/21 10:43:22;;;;;;;;;;;23.20;67.30;;;;;;7322574;19;9618;-79
2023/07/21 10:45:56;;;;;;;;;;;23.30;66.70;;;;;;7321426;19;9260;-79
2023/07/21 10:48:27;;;;;;;;;;;23.30;65.20;;;;;;7322822;19;10141;-80
2023/07/21 10:50:59;;;;;;;;;;;23.20;63.90;;;;;;7322537;19;9186;-80
2023/07/21 10:53:29;;;;;;;;;;;23.10;64.90;;;;;;7320003;19;9306;-80
2023/07/21 10:56:07;;;;;;;;;;;23.00;66.20;;;;;;7321101;19;9229;-80
2023/07/21 10:58:37;;;;;;;;;;;23.30;67.00;;;;;;7318145;19;9505;-78
2023/07/21 11:01:05;;;;;;;;;;;23.40;66.60;;;;;;7319285;19;9481;-77
2023/07/21 11:03:35;;;;;;;;;;;23.50;67.00;;;;;;7312560;19;9264;-79
2023/07/21 11:06:04;;;;;;;;;;;23.70;65.40;;;;;;7317295;19;9234;-78
2023/07/21 11:08:33;;;;;;;;;;;23.70;66.00;;;;;;7319794;19;9413;-78
2023/07/21 11:11:05;;;;;;;;;;;23.60;64.10;;;;;;7319890;19;9239;-79
2023/07/21 11:13:34;;;;;;;;;;;23.50;66.50;;;;;;7319824;19;10345;-78
2023/07/21 11:16:05;;;;;;;;;;;23.40;66.90;;;;;;7315684;19;10305;-80
2023/07/21 11:18:35;;;;;;;;;;;23.20;66.50;;;;;;7315998;19;9423;-81
2023/07/21 11:21:04;;;;;;;;;;;23.20;67.20;;;;;;7318804;19;9201;-81
2023/07/21 11:23:34;;;;;;;;;;;22.90;66.30;;;;;;7320240;19;9425;-81
2023/07/21 11:26:10;;;;;;;;;;;22.90;65.20;;;;;;7318195;19;9326;-81
2023/07/21 11:28:43;;;;;;;;;;;22.70;68.40;;;;;;7321403;19;9216;-81
2023/07/21 11:31:14;;;;;;;;;;;22.60;67.00;;;;;;7321556;19;9177;-81
2023/07/21 11:33:45;;;;;;;;;;;22.50;68.90;;;;;;7319924;19;9418;-81
2023/07/21 11:36:17;;;;;;;;;;;22.50;69.10;;;;;;7320863;19;9444;-81
2023/07/21 11:39:00;;;;;;;;;;;22.60;70.00;;;;;;7319372;19;9213;-81
2023/07/21 11:41:51;;;;;;;;;;;22.70;69.20;;;;;;7318512;19;9596;-81
2023/07/21 11:44:24;;;;;;;;;;;23.00;69.30;;;;;;7318855;19;9205;-81
2023/07/21 11:47:04;;;;;;;;;;;23.00;67.20;;;;;;7322612;19;9285;-81
2023/07/21 11:49:34;;;;;;;;;;;23.10;68.60;;;;;;7326280;19;10689;-81
2023/07/21 11:52:05;;;;;;;;;;;23.10;68.80;;;;;;7327812;19;9564;-81
2023/07/21 11:54:42;;;;;;;;;;;23.30;68.90;;;;;;7326768;19;9426;-80
2023/07/21 11:57:14;;;;;;;;;;;23.40;68.70;;;;;;7325756;19;9281;-81
2023/07/21 11:59:44;;;;;;;;;;;23.40;65.20;;;;;;7321424;19;9271;-81
2023/07/21 12:02:18;;;;;;;;;;;23.50;68.60;;;;;;7321916;19;9297;-79
2023/07/21 12:04:48;;;;;;;;;;;23.50;68.60;;;;;;7319162;19;9465;-80
2023/07/21 12:07:17;;;;;;;;;;;23.50;68.50;;;;;;7325855;19;9241;-80
2023/07/21 12:09:46;;;;;;;;;;;23.40;80.50;;;;;;7325974;19;9225;-80
2023/07/21 12:12:18;;;;;;;;;;;23.70;99.90;;;;;;7324391;19;9205;-80
2023/07/21 12:14:47;;;;;;;;;;;23.90;99.90;;;;;;7322637;19;9134;-81
2023/07/21 12:17:17;;;;;;;;;;;24.20;99.90;;;;;;7320257;19;9001;-77
2023/07/21 12:19:46;;;;;;;;;;;24.00;74.20;;;;;;7323423;19;9162;-81
2023/07/21 12:22:15;;;;;;;;;;;23.70;73.90;;;;;;7325335;19;9237;-83
2023/07/21 12:24:45;;;;;;;;;;;23.50;90.70;;;;;;7324068;19;9115;-82
2023/07/21 12:27:14;;;;;;;;;;;23.60;99.90;;;;;;7321909;19;9257;-82
2023/07/21 12:29:46;;;;;;;;;;;23.80;99.90;;;;;;7323285;19;9574;-81
2023/07/21 12:32:15;;;;;;;;;;;23.90;99.90;;;;;;7317002;19;10537;-81
2023/07/21 12:34:44;;;;;;;;;;;24.20;99.90;;;;;;7319074;19;9129;-82
2023/07/21 12:37:13;;;;;;;;;;;24.50;99.90;;;;;;7325184;19;9252;-82
2023/07/21 12:39:42;;;;;;;;;;;24.70;90.40;;;;;;7324824;19;9361;-82
2023/07/21 12:42:11;;;;;;;;;;;25.00;99.90;;;;;;7324780;19;9255;-82
2023/07/21 12:44:40;;;;;;;;;;;25.10;99.90;;;;;;7322525;19;10811;-82
2023/07/21 12:47:12;;;;;;;;;;;25.20;99.90;;;;;;7325309;19;9127;-81
2023/07/21 12:49:41;;;;;;;;;;;24.90;95.50;;;;;;7325922;19;9213;-83
2023/07/21 12:52:10;;;;;;;;;;;24.80;95.80;;;;;;7322196;19;9423;-81
2023/07/21 12:54:40;;;;;;;;;;;24.50;97.60;;;;;;7322092;19;10782;-82
2023/07/21 12:57:09;;;;;;;;;;;24.40;97.10;;;;;;7312433;19;9502;-81
2023/07/21 12:59:38;;;;;;;;;;;24.10;96.30;;;;;;7324614;19;9787;-78
2023/07/21 13:02:08;;;;;;;;;;;23.80;74.10;;;;;;7320569;19;9570;-78
2023/07/21 13:04:40;;;;;;;;;;;23.60;88.10;;;;;;7325346;19;9256;-78
2023/07/21 13:07:11;;;;;;;;;;;23.70;95.60;;;;;;7330076;19;9182;-77
2023/07/21 13:09:40;;;;;;;;;;;22.10;75.70;;;;;;7331244;19;9469;-77
2023/07/21 13:12:10;;;;;;;;;;;21.00;82.30;;;;;;7327592;19;11184;-77
2023/07/21 13:14:39;;;;;;;;;;;20.80;88.30;;;;;;7326011;19;9127;-77
2023/07/21 13:17:08;;;;;;;;;;;20.60;90.80;;;;;;7326429;19;9265;-77
2023/07/21 13:19:40;;;;;;;;;;;19.70;91.20;;;;;;7326471;19;9272;-77
2023/07/21 13:22:09;;;;;;;;;;;19.20;93.70;;;;;;7329720;19;9189;-77
2023/07/21 13:24:38;;;;;;;;;;;18.70;96.80;;;;;;7325997;19;9197;-77
2023/07/21 13:27:07;;;;;;;;;;;18.30;99.30;;;;;;7326112;19;9205;-78
2023/07/21 13:29:38;;;;;;;;;;;18.30;99.90;;;;;;7325449;19;9197;-79
2023/07/21 13:32:08;;;;;;;;;;;18.00;99.90;;;;;;7326233;19;9124;-79
2023/07/21 13:34:39;;;;;;;;;;;17.30;99.90;;;;;;7326196;19;9202;-80
2023/07/21 13:37:08;;;;;;;;;;;17.40;99.90;;;;;;7325848;19;9319;-80
2023/07/21 13:39:37;;;;;;;;;;;17.00;99.90;;;;;;7330072;19;9487;-79
2023/07/21 13:42:07;;;;;;;;;;;16.80;99.90;;;;;;7325430;19;10540;-79
2023/07/21 13:44:36;;;;;;;;;;;16.70;99.90;;;;;;7325043;19;9205;-79
2023/07/21 13:47:05;;;;;;;;;;;16.70;99.90;;;;;;7325496;19;9459;-80
2023/07/21 13:49:34;;;;;;;;;;;17.60;99.90;;;;;;7325638;19;9397;-79
2023/07/21 13:52:07;;;;;;;;;;;17.60;99.90;;;;;;7328401;19;9478;-79
2023/07/21 13:54:36;;;;;;;;;;;17.40;99.90;;;;;;7325683;19;9189;-80
2023/07/21 13:57:07;;;;;;;;;;;16.90;99.90;;;;;;7323590;19;9186;-80
2023/07/21 13:59:36;;;;;;;;;;;16.80;99.90;;;;;;7325337;19;9225;-80
2023/07/21 14:02:05;;;;;;;;;;;16.70;99.90;;;;;;7325134;19;9223;-80
2023/07/21 14:04:34;;;;;;;;;;;16.70;99.90;;;;;;7324662;19;9213;-79
2023/07/21 14:07:06;;;;;;;;;;;16.80;99.90;;;;;;7323131;19;9190;-80
2023/07/21 14:09:35;;;;;;;;;;;16.50;99.90;;;;;;7323841;19;10700;-79
2023/07/21 14:12:04;;;;;;;;;;;16.20;99.90;;;;;;7325323;19;9126;-80
2023/07/21 14:14:33;;;;;;;;;;;16.30;99.90;;;;;;7324860;19;9203;-79
2023/07/21 14:17:02;;;;;;;;;;;16.50;99.90;;;;;;7324487;19;10419;-79
2023/07/21 14:19:31;;;;;;;;;;;16.10;99.90;;;;;;7324758;19;9486;-79
2023/07/21 14:22:00;;;;;;;;;;;16.00;99.90;;;;;;7324404;19;9485;-80
2023/07/21 14:24:32;;;;;;;;;;;15.70;99.90;;;;;;7324329;19;9272;-79
2023/07/21 14:27:01;;;;;;;;;;;15.60;99.90;;;;;;7322295;19;9169;-80
2023/07/21 14:29:30;;;;;;;;;;;16.00;99.90;;;;;;7324793;19;9180;-80
2023/07/21 14:31:59;;;;;;;;;;;16.10;99.90;;;;;;7326334;19;9180;-80
2023/07/21 14:34:28;;;;;;;;;;;16.00;99.90;;;;;;7328901;19;9188;-79
2023/07/21 14:36:57;;;;;;;;;;;16.20;99.90;;;;;;7329004;19;9274;-80
2023/07/21 14:39:26;;;;;;;;;;;16.50;99.90;;;;;;7324878;19;9226;-80
2023/07/21 14:41:57;;;;;;;;;;;16.90;99.90;;;;;;7323194;19;9224;-80
2023/07/21 14:44:27;;;;;;;;;;;16.80;99.90;;;;;;7323693;19;10414;-80
2023/07/21 14:46:56;;;;;;;;;;;16.80;99.90;;;;;;7322200;19;10377;-79